Time;durP1;ratioP1;P1;durP2;ratioP2;P2;SDS_P1;SDS_P2;PMS_P1;PMS_P2;Temp;Humidity;BMP_temperature;BMP_pressure;BME280_temperature;BME280_humidity;BME280_pressure;Samples;Min_cycle;Max_cycle;Signal;HPM_P1;HPM_P2
2023/03/25 00:01:17;;;;;;;6.63;1.73;;;;;;;11.14;100.00;100147.78;5184151;28;20037;-76
2023/03/25 00:03:51;;;;;;;8.63;2.35;;;;;;;11.23;100.00;100155.72;5181491;28;20038;-76
2023/03/25 00:06:23;;;;;;;5.10;1.70;;;;;;;11.30;100.00;100146.28;5184451;28;20039;-78
2023/03/25 00:08:55;;;;;;;9.02;1.70;;;;;;;11.03;100.00;100148.00;5183624;28;20019;-76
2023/03/25 00:11:27;;;;;;;8.40;1.92;;;;;;;10.90;100.00;100135.25;5180832;28;20037;-76
2023/03/25 00:13:59;;;;;;;9.70;1.85;;;;;;;11.08;100.00;100155.41;5182873;28;20029;-76
2023/03/25 00:16:30;;;;;;;8.35;1.95;;;;;;;11.00;100.00;100157.97;5184553;28;20027;-76
2023/03/25 00:19:02;;;;;;;10.25;1.77;;;;;;;10.84;100.00;100154.22;5186138;28;20029;-76
2023/03/25 00:21:34;;;;;;;6.80;1.63;;;;;;;10.96;100.00;100162.69;5182134;28;20030;-76
2023/03/25 00:24:05;;;;;;;6.32;1.85;;;;;;;11.03;100.00;100152.44;5181390;28;20346;-78
2023/03/25 00:26:41;;;;;;;8.13;1.50;;;;;;;11.10;100.00;100148.22;5184752;28;20030;-76
2023/03/25 00:29:13;;;;;;;5.32;1.80;;;;;;;10.91;100.00;100138.69;5180450;28;20090;-76
2023/03/25 00:31:45;;;;;;;7.10;1.50;;;;;;;10.96;100.00;100124.19;5178912;28;20400;-76
2023/03/25 00:34:19;;;;;;;8.65;1.63;;;;;;;11.12;100.00;100141.84;5181356;28;20046;-76
2023/03/25 00:36:50;;;;;;;4.80;1.60;;;;;;;11.15;100.00;100136.31;5180303;28;20048;-77
2023/03/25 00:39:21;;;;;;;5.75;2.42;;;;;;;11.14;100.00;100141.72;5181465;28;20131;-77
2023/03/25 00:41:56;;;;;;;5.13;1.73;;;;;;;10.95;100.00;100132.22;5180900;28;20062;-76
2023/03/25 00:44:28;;;;;;;8.95;2.05;;;;;;;11.06;100.00;100139.00;5182739;28;20026;-77
2023/03/25 00:47:00;;;;;;;8.45;2.00;;;;;;;11.04;100.00;100138.34;5177263;28;20055;-77
2023/03/25 00:49:31;;;;;;;6.75;2.33;;;;;;;10.92;100.00;100141.19;5179729;28;20031;-77
2023/03/25 00:52:03;;;;;;;5.72;1.60;;;;;;;10.98;100.00;100131.88;5185711;28;20093;-77
2023/03/25 00:54:34;;;;;;;6.05;2.03;;;;;;;10.88;100.00;100137.22;5182345;28;20073;-77
2023/03/25 00:57:05;;;;;;;7.60;2.03;;;;;;;10.89;100.00;100141.47;5183461;28;20023;-77
2023/03/25 00:59:37;;;;;;;6.70;1.63;;;;;;;10.91;100.00;100126.44;5180045;28;20093;-77
2023/03/25 01:02:09;;;;;;;5.32;1.48;;;;;;;11.02;100.00;100132.41;5185163;28;20198;-77
2023/03/25 01:04:40;;;;;;;7.53;2.08;;;;;;;10.96;100.00;100131.22;5188220;28;20369;-77
2023/03/25 01:07:14;;;;;;;8.40;1.70;;;;;;;10.92;100.00;100120.22;5187934;28;20433;-77
2023/03/25 01:09:46;;;;;;;4.55;1.73;;;;;;;10.88;100.00;100126.75;5184150;28;20109;-77
2023/03/25 01:12:18;;;;;;;5.68;1.58;;;;;;;10.90;100.00;100130.00;5184541;28;20499;-76
2023/03/25 01:14:49;;;;;;;5.85;1.45;;;;;;;10.94;100.00;100135.78;5181898;28;20064;-77
2023/03/25 01:17:21;;;;;;;3.97;1.17;;;;;;;10.87;100.00;100125.09;5183650;28;20041;-76
2023/03/25 01:19:52;;;;;;;6.25;1.83;;;;;;;10.92;100.00;100141.19;5185092;28;20029;-77
2023/03/25 01:22:24;;;;;;;9.57;1.52;;;;;;;10.96;100.00;100124.19;5187610;28;20450;-77
2023/03/25 01:24:55;;;;;;;7.00;1.60;;;;;;;11.07;100.00;100131.00;5188775;28;20043;-77
2023/03/25 01:27:26;;;;;;;6.03;1.92;;;;;;;10.54;100.00;100131.81;5187198;28;20047;-76
2023/03/25 01:29:58;;;;;;;7.32;1.90;;;;;;;10.58;100.00;100133.16;5183767;28;20053;-77
2023/03/25 01:32:29;;;;;;;8.93;1.77;;;;;;;10.68;100.00;100136.53;5181277;28;20101;-77
2023/03/25 01:35:00;;;;;;;6.93;1.80;;;;;;;10.57;100.00;100122.81;5183617;28;20026;-77
2023/03/25 01:37:33;;;;;;;6.40;1.42;;;;;;;10.62;100.00;100134.50;5187352;28;20041;-77
2023/03/25 01:40:08;;;;;;;5.50;1.30;;;;;;;10.58;100.00;100140.19;5179951;28;20089;-77
2023/03/25 01:42:40;;;;;;;4.95;1.88;;;;;;;10.53;100.00;100127.53;5186680;28;20058;-77
2023/03/25 01:45:18;;;;;;;4.60;1.30;;;;;;;10.63;100.00;100144.00;5177548;28;20456;-77
2023/03/25 01:47:57;;;;;;;4.95;1.08;;;;;;;10.48;100.00;100135.81;5184499;28;20137;-77
2023/03/25 01:50:31;;;;;;;3.72;1.13;;;;;;;10.42;100.00;100130.34;5184001;28;20706;-76
2023/03/25 01:53:05;;;;;;;3.83;1.20;;;;;;;10.46;100.00;100134.34;5182110;28;20176;-77
2023/03/25 01:55:37;;;;;;;3.35;1.58;;;;;;;10.37;100.00;100112.44;5184102;28;20507;-77
2023/03/25 01:58:12;;;;;;;4.55;1.63;;;;;;;10.45;100.00;100120.41;5185544;28;20089;-77
2023/03/25 02:00:46;;;;;;;4.65;1.50;;;;;;;10.46;100.00;100129.91;5182731;28;20027;-77
2023/03/25 02:03:21;;;;;;;5.30;1.63;;;;;;;10.46;100.00;100127.28;5182973;28;20026;-77
2023/03/25 02:06:13;;;;;;;5.13;1.58;;;;;;;10.69;100.00;100121.63;5182736;28;20018;-76
2023/03/25 02:08:44;;;;;;;3.75;1.45;;;;;;;10.36;100.00;100115.22;5180841;28;20408;-76
2023/03/25 02:11:15;;;;;;;5.32;1.65;;;;;;;10.35;100.00;100113.59;5180141;28;20033;-77
2023/03/25 02:13:47;;;;;;;7.20;1.83;;;;;;;10.40;100.00;100125.25;5183034;28;20023;-77
2023/03/25 02:16:24;;;;;;;4.65;1.50;;;;;;;10.47;100.00;100122.88;5182990;28;20026;-77
2023/03/25 02:19:21;;;;;;;5.28;1.63;;;;;;;10.43;100.00;100119.72;5181939;28;20027;-78
2023/03/25 02:22:28;;;;;;;4.97;1.50;;;;;;;10.46;100.00;100110.75;5185183;28;20019;-77
2023/03/25 02:25:18;;;;;;;5.88;1.42;;;;;;;10.44;100.00;100115.31;5191715;28;20101;-77
2023/03/25 02:27:59;;;;;;;4.68;1.40;;;;;;;10.47;100.00;100122.88;5194073;28;20042;-77
2023/03/25 02:30:45;;;;;;;4.20;1.50;;;;;;;10.36;100.00;100113.44;5180621;28;20476;-76
2023/03/25 02:33:56;;;;;;;5.85;1.17;;;;;;;10.48;100.00;100122.72;5185748;28;20153;-77
2023/03/25 02:36:33;;;;;;;5.97;1.33;;;;;;;10.37;100.00;100124.72;5178705;28;20066;-76
2023/03/25 02:39:29;;;;;;;10.75;1.60;;;;;;;10.81;100.00;100125.69;5182823;28;20034;-77
2023/03/25 02:42:15;;;;;;;7.53;1.63;;;;;;;10.59;100.00;100120.88;5184022;28;20061;-76
2023/03/25 02:44:54;;;;;;;5.10;1.75;;;;;;;10.46;100.00;100103.72;5183668;28;20031;-77
2023/03/25 02:47:31;;;;;;;5.30;1.50;;;;;;;10.39;100.00;100115.75;5185333;28;20515;-77
2023/03/25 02:50:10;;;;;;;4.05;1.10;;;;;;;10.50;100.00;100111.28;5185122;28;20089;-76
2023/03/25 02:52:46;;;;;;;6.78;2.03;;;;;;;10.37;100.00;100111.63;5179249;28;20086;-76
2023/03/25 02:55:20;;;;;;;5.85;1.60;;;;;;;10.28;100.00;100095.00;5182870;28;20030;-76
2023/03/25 02:57:56;;;;;;;7.85;2.13;;;;;;;10.24;100.00;100111.94;5181485;28;20033;-78
2023/03/25 03:00:29;;;;;;;6.18;1.75;;;;;;;10.14;100.00;100098.06;5186670;28;20033;-77
2023/03/25 03:03:02;;;;;;;7.68;1.52;;;;;;;10.20;100.00;100102.75;5181934;28;20480;-78
2023/03/25 03:05:38;;;;;;;5.95;1.58;;;;;;;10.06;100.00;100105.84;5180823;28;20750;-76
2023/03/25 03:08:47;;;;;;;7.30;2.10;;;;;;;10.53;100.00;100108.34;5180799;28;20030;-76
2023/03/25 03:11:30;;;;;;;8.05;1.80;;;;;;;10.31;100.00;100110.44;5178340;28;20058;-77
2023/03/25 03:14:15;;;;;;;7.88;2.33;;;;;;;10.32;100.00;100101.59;5181878;28;20468;-76
2023/03/25 03:17:23;;;;;;;5.13;1.73;;;;;;;10.49;100.00;100092.13;5182302;28;20077;-76
2023/03/25 03:20:03;;;;;;;5.35;1.88;;;;;;;10.31;100.00;100086.06;5181504;28;20875;-76
2023/03/25 03:22:44;;;;;;;7.88;1.90;;;;;;;10.22;100.00;100092.94;5181030;28;20096;-77
2023/03/25 03:25:38;;;;;;;7.57;1.85;;;;;;;10.09;100.00;100084.63;5183759;28;20038;-76
2023/03/25 03:28:18;;;;;;;6.93;2.13;;;;;;;10.20;100.00;100102.75;5182859;28;20109;-76
2023/03/25 03:31:05;;;;;;;6.85;1.95;;;;;;;10.14;100.00;100079.75;5179860;28;20030;-76
2023/03/25 03:33:45;;;;;;;7.25;2.00;;;;;;;10.15;100.00;100091.88;5181936;28;20058;-76
2023/03/25 03:36:21;;;;;;;6.65;2.30;;;;;;;10.10;100.00;100091.50;5183164;28;20572;-76
2023/03/25 03:39:04;;;;;;;8.50;1.75;;;;;;;10.08;100.00;100099.50;5180119;28;20034;-78
2023/03/25 03:41:40;;;;;;;9.13;2.35;;;;;;;10.08;100.00;100104.72;5181069;28;20030;-77
2023/03/25 03:44:17;;;;;;;8.00;1.67;;;;;;;10.08;100.00;100081.19;5182208;28;20027;-77
2023/03/25 03:46:59;;;;;;;6.45;1.80;;;;;;;10.18;100.00;100102.06;5180018;28;20029;-76
2023/03/25 03:49:45;;;;;;;12.13;2.47;;;;;;;10.32;100.00;100101.59;5181726;28;20118;-76
2023/03/25 03:52:32;;;;;;;7.38;2.42;;;;;;;10.18;100.00;100102.88;5182576;28;20026;-77
2023/03/25 03:55:09;;;;;;;7.95;2.20;;;;;;;10.20;100.00;100092.28;5181785;28;20489;-76
2023/03/25 03:57:55;;;;;;;11.05;2.47;;;;;;;10.23;100.00;100090.19;5181422;28;20027;-76
2023/03/25 04:00:35;;;;;;;9.40;2.42;;;;;;;10.15;100.00;100097.94;5179916;28;20042;-77
2023/03/25 04:03:15;;;;;;;9.73;2.10;;;;;;;10.14;100.00;100104.13;5182851;28;20038;-77
2023/03/25 04:05:57;;;;;;;8.27;2.33;;;;;;;10.10;100.00;100099.34;5180580;28;20438;-76
2023/03/25 04:08:36;;;;;;;8.68;1.73;;;;;;;10.10;100.00;100094.09;5183262;28;20043;-77
2023/03/25 04:11:15;;;;;;;9.40;2.20;;;;;;;10.07;100.00;100104.84;5182695;28;20527;-76
2023/03/25 04:13:51;;;;;;;6.43;2.15;;;;;;;10.10;100.00;100096.72;5182917;28;20030;-77
2023/03/25 04:16:23;;;;;;;10.85;2.65;;;;;;;10.05;100.00;100099.78;5182011;28;20031;-76
2023/03/25 04:18:57;;;;;;;4.95;1.35;;;;;;;9.95;100.00;100104.22;5184622;28;20122;-76
2023/03/25 04:21:28;;;;;;;11.18;1.70;;;;;;;10.04;100.00;100099.91;5185002;28;22021;-76
2023/03/25 04:24:00;;;;;;;7.55;1.58;;;;;;;9.91;100.00;100102.88;5187103;28;20027;-76
2023/03/25 04:26:32;;;;;;;10.13;1.80;;;;;;;9.95;100.00;100091.97;5188635;28;20026;-76
2023/03/25 04:29:04;;;;;;;6.68;1.40;;;;;;;10.16;100.00;100104.81;5185516;28;20526;-76
2023/03/25 04:31:36;;;;;;;6.28;1.60;;;;;;;10.08;100.00;100101.28;5185487;28;20031;-76
2023/03/25 04:34:08;;;;;;;5.28;1.52;;;;;;;10.02;100.00;100097.44;5185635;28;20484;-77
2023/03/25 04:36:41;;;;;;;6.88;2.00;;;;;;;9.99;100.00;100093.31;5182636;28;20042;-77
2023/03/25 04:39:16;;;;;;;6.00;1.92;;;;;;;9.77;100.00;100083.22;5184241;28;20027;-76
2023/03/25 04:41:49;;;;;;;6.82;2.10;;;;;;;9.96;100.00;100103.25;5189704;28;20489;-78
2023/03/25 04:44:22;;;;;;;5.60;1.60;;;;;;;9.88;100.00;100106.59;5186332;28;20491;-77
2023/03/25 04:46:57;;;;;;;6.55;1.98;;;;;;;9.92;100.00;100113.19;5187072;28;20098;-78
2023/03/25 04:49:28;;;;;;;6.30;2.00;;;;;;;9.88;100.00;100105.75;5188067;28;20049;-77
2023/03/25 04:52:01;;;;;;;6.30;2.22;;;;;;;9.98;100.00;100110.00;5180502;28;20022;-77
2023/03/25 04:54:32;;;;;;;7.60;2.37;;;;;;;9.95;100.00;100105.03;5182010;28;20034;-78
2023/03/25 04:57:03;;;;;;;8.93;2.13;;;;;;;9.89;100.00;100092.56;5185672;28;20293;-78
2023/03/25 04:59:35;;;;;;;7.95;2.50;;;;;;;9.77;100.00;100096.31;5184998;28;20427;-78
2023/03/25 05:02:12;;;;;;;7.07;1.63;;;;;;;9.79;100.00;100104.84;5184777;28;20022;-77
2023/03/25 05:04:46;;;;;;;6.65;1.75;;;;;;;9.72;100.00;100106.38;5182694;28;20034;-78
2023/03/25 05:07:17;;;;;;;10.43;2.38;;;;;;;9.62;100.00;100100.34;5185728;28;20353;-77
2023/03/25 05:09:48;;;;;;;7.80;1.77;;;;;;;9.65;100.00;100097.44;5184887;28;20034;-78
2023/03/25 05:12:20;;;;;;;6.75;1.77;;;;;;;9.72;100.00;100093.28;5184242;28;20028;-78
2023/03/25 05:14:51;;;;;;;6.72;1.70;;;;;;;9.68;100.00;100094.56;5179969;28;20034;-77
2023/03/25 05:17:22;;;;;;;6.57;2.15;;;;;;;9.68;100.00;100090.16;5187156;28;20029;-77
2023/03/25 05:19:55;;;;;;;5.20;1.58;;;;;;;9.68;100.00;100091.94;5185344;28;20117;-78
2023/03/25 05:22:27;;;;;;;7.28;2.33;;;;;;;9.69;100.00;100101.44;5181740;28;20026;-77
2023/03/25 05:25:01;;;;;;;6.82;1.60;;;;;;;9.66;100.00;100099.09;5184946;28;20492;-77
2023/03/25 05:27:33;;;;;;;6.20;1.60;;;;;;;9.48;100.00;100097.22;5188280;28;20054;-77
2023/03/25 05:30:06;;;;;;;8.65;1.88;;;;;;;9.60;100.00;100108.34;5182315;28;20031;-78
2023/03/25 05:32:39;;;;;;;4.75;1.80;;;;;;;9.57;100.00;100119.06;5183807;28;20065;-77
2023/03/25 05:35:11;;;;;;;;;;;;;;;10.01;100.00;100126.41;5186343;28;20025;-78
2023/03/25 05:37:42;;;;;;;6.53;1.70;;;;;;;9.67;100.00;100116.44;5180696;28;19918;-77
2023/03/25 05:40:14;;;;;;;9.88;2.10;;;;;;;9.59;100.00;100101.47;5183152;28;20039;-78
2023/03/25 05:42:47;;;;;;;5.70;1.65;;;;;;;9.66;100.00;100110.41;5184668;28;20058;-78
2023/03/25 05:45:19;;;;;;;8.15;1.85;;;;;;;9.72;100.00;100115.03;5180572;28;20042;-78
2023/03/25 05:47:51;;;;;;;8.25;1.92;;;;;;;9.69;100.00;100120.56;5181125;28;20489;-77
2023/03/25 05:50:22;;;;;;;6.75;2.03;;;;;;;9.72;100.00;100116.84;5186862;28;20511;-77
2023/03/25 05:52:54;;;;;;;9.35;2.47;;;;;;;9.69;100.00;100124.97;5180996;28;20035;-77
2023/03/25 05:55:26;;;;;;;6.78;1.92;;;;;;;9.62;100.00;100118.66;5182046;28;20118;-76
2023/03/25 05:57:57;;;;;;;5.88;1.88;;;;;;;9.70;100.00;100126.63;5182905;28;20023;-77
2023/03/25 06:00:29;;;;;;;5.57;1.58;;;;;;;9.71;100.00;100123.88;5181862;28;20057;-78
2023/03/25 06:03:00;;;;;;;6.70;1.75;;;;;;;9.80;100.00;100135.25;5183980;28;20018;-77
2023/03/25 06:05:32;;;;;;;7.55;1.73;;;;;;;9.84;100.00;100141.03;5185521;28;20113;-77
2023/03/25 06:08:04;;;;;;;7.53;1.90;;;;;;;9.78;100.00;100137.22;5182863;28;20046;-77
2023/03/25 06:10:35;;;;;;;8.18;1.90;;;;;;;9.85;100.00;100153.13;5185401;28;20084;-77
2023/03/25 06:13:06;;;;;;;7.90;1.77;;;;;;;9.84;100.00;100148.88;5181392;28;20508;-77
2023/03/25 06:15:39;;;;;;;6.78;1.67;;;;;;;9.71;100.00;100150.03;5183933;28;20175;-77
2023/03/25 06:18:10;;;;;;;6.18;1.67;;;;;;;9.66;100.00;100154.00;5180747;28;20023;-77
2023/03/25 06:20:42;;;;;;;7.78;2.30;;;;;;;9.67;100.00;100132.16;5186802;28;20858;-77
2023/03/25 06:23:13;;;;;;;8.90;2.42;;;;;;;9.66;100.00;100140.94;5184009;28;20035;-77
2023/03/25 06:25:44;;;;;;;11.13;2.22;;;;;;;9.78;100.00;100147.66;5188296;28;20065;-77
2023/03/25 06:28:19;;;;;;;9.77;2.47;;;;;;;9.75;100.00;100142.72;5181606;28;20049;-77
2023/03/25 06:30:52;;;;;;;11.63;3.00;;;;;;;9.75;100.00;100143.53;5181322;28;20057;-77
2023/03/25 06:33:23;;;;;;;6.90;1.92;;;;;;;9.77;100.00;100145.19;5182368;28;20018;-77
2023/03/25 06:35:54;;;;;;;10.02;2.28;;;;;;;9.83;100.00;100137.59;5181344;28;20019;-77
2023/03/25 06:38:28;;;;;;;9.13;2.17;;;;;;;9.92;100.00;100139.34;5177960;28;20037;-77
2023/03/25 06:41:00;;;;;;;9.32;2.10;;;;;;;10.03;100.00;100155.84;5177086;28;20096;-78
2023/03/25 06:43:33;;;;;;;8.07;1.80;;;;;;;10.03;100.00;100163.69;5183751;28;20030;-78
2023/03/25 06:46:04;;;;;;;7.63;2.08;;;;;;;10.05;100.00;100157.34;5179819;28;20030;-77
2023/03/25 06:48:35;;;;;;;8.38;2.22;;;;;;;10.11;100.00;100164.63;5184034;28;20035;-77
2023/03/25 06:51:07;;;;;;;11.77;2.58;;;;;;;10.15;100.00;100167.78;5181492;28;20018;-78
2023/03/25 06:53:38;;;;;;;10.63;2.38;;;;;;;10.25;100.00;100173.84;5177823;28;20030;-77
2023/03/25 06:56:09;;;;;;;9.32;2.55;;;;;;;10.23;100.00;100162.66;5182838;28;20473;-77
2023/03/25 06:58:41;;;;;;;10.63;2.70;;;;;;;10.25;100.00;100168.59;5181834;28;20550;-78
2023/03/25 07:01:12;;;;;;;12.27;2.88;;;;;;;10.22;100.00;100166.22;5181740;28;20031;-78
2023/03/25 07:03:43;;;;;;;8.88;2.00;;;;;;;10.37;100.00;100172.66;5172163;28;20219;-77
2023/03/25 07:06:17;;;;;;;9.15;2.17;;;;;;;10.42;100.00;100186.16;5185751;28;20033;-77
2023/03/25 07:08:49;;;;;;;8.70;2.45;;;;;;;10.47;100.00;100168.22;5184049;28;20022;-78
2023/03/25 07:11:28;;;;;;;9.20;2.40;;;;;;;10.55;100.00;100171.91;5180068;28;20041;-77
2023/03/25 07:14:00;;;;;;;6.10;1.98;;;;;;;10.46;100.00;100166.56;5181571;28;20023;-78
2023/03/25 07:16:31;;;;;;;12.80;3.20;;;;;;;10.53;100.00;100160.75;5186938;28;20447;-77
2023/03/25 07:19:02;;;;;;;12.02;2.58;;;;;;;10.49;100.00;100165.44;5184207;28;20023;-77
2023/03/25 07:21:34;;;;;;;11.68;3.20;;;;;;;10.39;100.00;100149.78;5182428;28;20042;-78
2023/03/25 07:24:05;;;;;;;8.70;2.45;;;;;;;10.38;100.00;100163.88;5181807;28;20023;-79
2023/03/25 07:26:36;;;;;;;11.82;2.67;;;;;;;10.43;100.00;100172.09;5185019;28;21218;-78
2023/03/25 07:29:08;;;;;;;9.38;2.53;;;;;;;10.49;100.00;100162.81;5184964;28;20575;-79
2023/03/25 07:31:40;;;;;;;13.32;3.60;;;;;;;10.52;100.00;100169.56;5181689;28;20117;-78
2023/03/25 07:34:11;;;;;;;10.27;3.20;;;;;;;10.48;100.00;100164.63;5183292;28;20022;-78
2023/03/25 07:36:43;;;;;;;8.48;2.38;;;;;;;10.33;100.00;100184.41;5180841;28;20045;-78
2023/03/25 07:39:14;;;;;;;14.85;2.80;;;;;;;10.40;100.00;100185.47;5180961;28;20027;-79
2023/03/25 07:41:46;;;;;;;10.15;3.03;;;;;;;10.37;100.00;100187.56;5180193;28;20039;-78
2023/03/25 07:44:19;;;;;;;9.85;2.30;;;;;;;10.36;100.00;100186.75;5177368;28;20469;-79
2023/03/25 07:46:50;;;;;;;;;;;;;;;10.90;100.00;100189.47;5179987;28;20077;-78
2023/03/25 07:49:21;;;;;;;13.73;2.63;;;;;;;10.31;100.00;100191.59;5182447;28;19964;-79
2023/03/25 07:51:53;;;;;;;14.43;2.65;;;;;;;10.21;100.00;100190.78;5180128;28;20034;-78
2023/03/25 07:54:24;;;;;;;9.68;2.45;;;;;;;10.28;100.00;100175.34;5183645;28;20037;-79
2023/03/25 07:56:56;;;;;;;12.63;2.53;;;;;;;10.49;100.00;100199.47;5187158;28;20018;-78
2023/03/25 07:59:27;;;;;;;8.27;2.33;;;;;;;10.28;100.00;100177.97;5182864;28;20077;-78
2023/03/25 08:01:59;;;;;;;10.30;2.50;;;;;;;10.54;100.00;100197.28;5189359;28;20546;-78
2023/03/25 08:04:30;;;;;;;9.80;2.53;;;;;;;10.67;100.00;100199.53;5188820;28;20058;-78
2023/03/25 08:07:01;;;;;;;12.25;2.97;;;;;;;10.90;100.00;100208.63;5190768;28;20566;-78
2023/03/25 08:09:32;;;;;;;13.85;3.55;;;;;;;11.04;100.00;100203.88;5189190;28;20514;-78
2023/03/25 08:12:04;;;;;;;12.48;2.95;;;;;;;11.16;100.00;100197.44;5194670;28;20034;-79
2023/03/25 08:14:36;;;;;;;11.60;2.50;;;;;;;11.36;100.00;100206.78;5194334;28;20031;-78
2023/03/25 08:17:07;;;;;;;13.35;3.00;;;;;;;11.19;100.00;100216.31;5183510;28;20480;-79
2023/03/25 08:19:38;;;;;;;8.85;2.13;;;;;;;11.33;100.00;100207.09;5188792;28;20586;-79
2023/03/25 08:22:09;;;;;;;10.15;2.47;;;;;;;11.36;100.00;100219.88;5185949;28;20119;-78
2023/03/25 08:24:41;;;;;;;12.07;3.20;;;;;;;11.22;100.00;100217.81;5185193;28;20089;-79
2023/03/25 08:27:12;;;;;;;13.50;2.90;;;;;;;11.22;100.00;100220.44;5186907;28;20038;-78
2023/03/25 08:29:46;;;;;;;13.13;3.35;;;;;;;11.10;100.00;100237.34;5187772;28;20039;-77
2023/03/25 08:32:17;;;;;;;12.48;3.10;;;;;;;10.97;100.00;100232.47;5184186;28;20023;-78
2023/03/25 08:34:48;;;;;;;12.75;2.90;;;;;;;10.99;100.00;100235.78;5189969;28;20022;-76
2023/03/25 08:37:21;;;;;;;16.70;4.10;;;;;;;10.81;100.00;100220.00;5184671;28;20057;-76
2023/03/25 08:39:54;;;;;;;13.35;2.85;;;;;;;10.92;100.00;100238.16;5185437;28;20034;-77
2023/03/25 08:42:26;;;;;;;9.73;2.50;;;;;;;10.78;100.00;100236.03;5188477;28;20030;-76
2023/03/25 08:44:57;;;;;;;17.85;3.88;;;;;;;10.70;100.00;100233.31;5189142;28;20018;-78
2023/03/25 08:47:28;;;;;;;16.67;3.60;;;;;;;10.81;100.00;100235.72;5179801;28;20062;-76
2023/03/25 08:50:00;;;;;;;14.80;3.40;;;;;;;10.95;100.00;100232.63;5186134;28;20049;-77
2023/03/25 08:52:31;;;;;;;12.45;3.05;;;;;;;11.00;100.00;100226.13;5185804;28;20033;-77
2023/03/25 08:55:03;;;;;;;14.48;4.10;;;;;;;11.19;100.00;100234.66;5184945;28;20081;-77
2023/03/25 08:57:36;;;;;;;13.55;3.20;;;;;;;11.32;100.00;100238.72;5185302;28;20030;-77
2023/03/25 09:00:15;;;;;;;16.20;3.20;;;;;;;11.24;100.00;100241.25;5186271;28;20042;-77
2023/03/25 09:02:46;;;;;;;16.25;3.33;;;;;;;11.17;100.00;100235.78;5183573;28;20544;-76
2023/03/25 09:05:18;;;;;;;11.70;3.15;;;;;;;11.32;100.00;100244.78;5180194;28;20026;-77
2023/03/25 09:07:50;;;;;;;15.32;3.40;;;;;;;11.38;100.00;100232.88;5175010;28;20031;-77
2023/03/25 09:10:21;;;;;;;14.73;3.72;;;;;;;11.35;100.00;100236.59;5180796;28;20022;-77
2023/03/25 09:12:52;;;;;;;12.85;3.53;;;;;;;11.62;100.00;100232.25;5174858;28;20034;-78
2023/03/25 09:15:25;;;;;;;17.92;3.45;;;;;;;12.04;100.00;100240.28;5187921;28;20026;-78
2023/03/25 09:17:57;;;;;;;15.13;3.27;;;;;;;11.98;100.00;100235.69;5183104;28;20030;-77
2023/03/25 09:20:28;;;;;;;16.73;3.90;;;;;;;12.00;100.00;100243.38;5186817;28;20289;-76
2023/03/25 09:23:00;;;;;;;15.13;4.55;;;;;;;12.26;100.00;100241.56;5183492;28;20124;-77
2023/03/25 09:25:31;;;;;;;17.88;4.07;;;;;;;12.41;100.00;100239.19;5186289;28;20034;-77
2023/03/25 09:28:03;;;;;;;15.32;2.90;;;;;;;12.58;100.00;100240.09;5182674;28;20046;-77
2023/03/25 09:30:34;;;;;;;12.25;3.13;;;;;;;12.71;100.00;100229.97;5182520;28;20267;-77
2023/03/25 09:33:05;;;;;;;14.02;3.33;;;;;;;12.42;100.00;100230.31;5185068;28;20081;-77
2023/03/25 09:35:40;;;;;;;12.68;3.17;;;;;;;12.49;100.00;100235.78;5185479;28;20033;-77
2023/03/25 09:38:11;;;;;;;18.95;3.58;;;;;;;12.50;100.00;100235.66;5183204;28;20109;-77
2023/03/25 09:40:44;;;;;;;15.85;4.25;;;;;;;12.71;100.00;100242.28;5184238;28;20556;-77
2023/03/25 09:43:39;;;;;;;16.02;3.38;;;;;;;12.97;100.00;100252.72;5184365;28;20346;-78
2023/03/25 09:46:10;;;;;;;11.93;2.97;;;;;;;12.93;100.00;100254.03;5185241;28;20153;-77
2023/03/25 09:48:45;;;;;;;13.77;3.85;;;;;;;12.99;100.00;100253.38;5183778;28;20034;-78
2023/03/25 09:51:40;;;;;;;14.43;3.30;;;;;;;13.03;100.00;100257.31;5185460;28;20069;-78
2023/03/25 09:54:29;;;;;;;11.27;3.92;;;;;;;13.38;100.00;100245.78;5183146;28;20015;-77
2023/03/25 09:57:06;;;;;;;13.82;3.35;;;;;;;13.36;100.00;100251.19;5182309;28;20081;-77
2023/03/25 09:59:43;;;;;;;12.80;3.35;;;;;;;13.14;100.00;100254.41;5184493;28;20035;-78
2023/03/25 10:02:36;;;;;;;12.45;3.47;;;;;;;13.34;100.00;100247.09;5183833;28;20033;-78
2023/03/25 10:05:21;;;;;;;16.75;4.15;;;;;;;13.30;100.00;100249.22;5183191;28;20045;-77
2023/03/25 10:08:05;;;;;;;11.20;3.30;;;;;;;13.39;100.00;100256.13;5186369;28;20082;-77
2023/03/25 10:10:42;;;;;;;11.95;3.13;;;;;;;13.35;100.00;100254.00;5184372;28;20036;-79
2023/03/25 10:13:33;;;;;;;12.57;3.40;;;;;;;13.39;100.00;100242.16;5182195;28;20034;-77
2023/03/25 10:16:20;;;;;;;15.15;3.70;;;;;;;13.29;100.00;100244.91;5182441;28;20023;-78
2023/03/25 10:19:10;;;;;;;13.40;4.05;;;;;;;13.60;100.00;100241.69;5184816;28;20040;-78
2023/03/25 10:21:54;;;;;;;18.98;4.25;;;;;;;13.66;100.00;100235.75;5184471;28;20102;-78
2023/03/25 10:24:43;;;;;;;13.18;4.05;;;;;;;13.59;100.00;100226.84;5184840;28;20029;-78
2023/03/25 10:27:40;;;;;;;17.30;4.03;;;;;;;13.62;100.00;100244.97;5185294;28;20038;-77
2023/03/25 10:30:22;;;;;;;14.95;4.03;;;;;;;13.68;100.00;100243.50;5180551;28;20528;-77
2023/03/25 10:33:32;;;;;;;16.73;4.15;;;;;;;13.61;100.00;100253.84;5183596;28;20469;-77
2023/03/25 10:36:06;;;;;;;14.52;3.40;;;;;;;13.38;100.00;100259.75;5183878;28;20043;-77
2023/03/25 10:38:40;;;;;;;10.60;3.22;;;;;;;13.30;100.00;100253.66;5183480;28;20088;-78
2023/03/25 10:41:36;;;;;;;17.92;3.72;;;;;;;13.44;100.00;100250.38;5181085;28;20046;-79
2023/03/25 10:44:10;;;;;;;14.45;3.45;;;;;;;13.43;100.00;100266.34;5182850;28;20073;-78
2023/03/25 10:46:51;;;;;;;13.60;3.45;;;;;;;13.67;100.00;100257.63;5183668;28;20061;-77
2023/03/25 10:49:27;;;;;;;11.57;2.90;;;;;;;13.75;100.00;100263.72;5183905;28;20085;-78
2023/03/25 10:52:00;;;;;;;11.20;3.15;;;;;;;13.66;97.69;100263.88;5183020;28;20439;-78
2023/03/25 10:54:43;;;;;;;13.82;3.25;;;;;;;13.83;98.59;100262.91;5184222;28;20115;-77
2023/03/25 10:57:20;;;;;;;16.10;3.33;;;;;;;13.82;93.01;100261.22;5181832;28;20034;-78
2023/03/25 11:00:16;;;;;;;11.25;2.97;;;;;;;14.33;93.50;100254.75;5180796;28;20034;-78
2023/03/25 11:02:48;;;;;;;12.85;2.72;;;;;;;14.06;88.69;100265.69;5181898;28;20030;-77
2023/03/25 11:05:23;;;;;;;12.63;2.97;;;;;;;14.27;88.17;100273.03;5182721;28;20033;-78
2023/03/25 11:08:04;;;;;;;11.57;3.10;;;;;;;14.30;88.28;100260.34;5184987;28;20022;-78
2023/03/25 11:10:36;;;;;;;12.07;2.72;;;;;;;14.10;85.37;100259.09;5174821;28;20027;-77
2023/03/25 11:13:13;;;;;;;9.20;2.75;;;;;;;13.88;83.53;100247.41;5180934;28;20093;-78
2023/03/25 11:15:46;;;;;;;15.60;2.72;;;;;;;13.78;82.66;100276.53;5182573;28;20110;-78
2023/03/25 11:18:26;;;;;;;9.60;2.58;;;;;;;14.01;81.41;100284.59;5181779;28;20132;-78
2023/03/25 11:21:10;;;;;;;7.18;1.77;;;;;;;14.00;81.08;100277.69;5182140;28;20069;-78
2023/03/25 11:23:45;;;;;;;10.80;2.60;;;;;;;13.72;82.81;100264.06;5180843;28;20081;-78
2023/03/25 11:26:26;;;;;;;8.02;1.90;;;;;;;14.06;83.16;100263.84;5181735;28;20117;-78
2023/03/25 11:29:05;;;;;;;8.82;2.25;;;;;;;14.07;82.43;100280.47;5181994;28;20073;-78
2023/03/25 11:31:37;;;;;;;8.35;2.35;;;;;;;13.95;82.31;100279.19;5179108;28;20022;-78
2023/03/25 11:34:11;;;;;;;7.90;1.83;;;;;;;14.09;81.86;100284.59;5184956;28;20396;-78
2023/03/25 11:36:45;;;;;;;8.18;2.17;;;;;;;14.09;80.05;100281.13;5182839;28;20030;-78
2023/03/25 11:39:24;;;;;;;10.82;2.63;;;;;;;14.11;82.68;100281.78;5184707;28;20088;-78
2023/03/25 11:41:57;;;;;;;11.70;2.80;;;;;;;14.01;81.81;100281.13;5180694;28;20026;-78
2023/03/25 11:44:31;;;;;;;13.23;3.33;;;;;;;14.02;80.27;100275.72;5182043;28;20056;-78
2023/03/25 11:47:05;;;;;;;13.73;3.13;;;;;;;14.02;83.39;100274.91;5181153;28;20030;-78
2023/03/25 11:49:40;;;;;;;10.63;2.53;;;;;;;13.89;83.06;100262.22;5179932;28;20033;-78
2023/03/25 11:52:20;;;;;;;14.55;2.88;;;;;;;13.97;82.74;100278.00;5180437;28;20053;-79
2023/03/25 11:54:53;;;;;;;11.63;2.72;;;;;;;13.89;82.54;100280.66;5184616;28;20374;-79